createdAt,value
2017-06-22T13:13:23.676Z,25.67
2017-06-22T16:40:29.041Z,26.14
2017-06-22T16:42:57.073Z,26.13
2017-06-22T16:45:24.586Z,26.10
2017-06-22T16:47:52.538Z,26.18
2017-06-22T16:50:19.975Z,26.15
2017-06-22T16:52:47.437Z,26.20
2017-06-22T16:55:15.215Z,26.23
2017-06-22T16:57:43.104Z,26.22
2017-06-22T17:00:10.934Z,26.23
2017-06-22T17:02:38.581Z,26.22
2017-06-22T17:05:06.611Z,26.19
2017-06-22T17:07:34.060Z,26.20
2017-06-22T17:10:01.639Z,26.18
2017-06-22T17:12:29.294Z,26.16
2017-06-22T17:14:56.731Z,26.16
2017-06-22T17:17:24.519Z,26.14
2017-06-22T17:19:52.375Z,26.12
2017-06-22T17:22:19.971Z,26.14
2017-06-22T17:24:48.526Z,26.14
2017-06-22T17:27:16.498Z,26.13
2017-06-22T17:29:44.272Z,26.11
2017-06-22T17:32:11.831Z,26.11
2017-06-22T17:34:39.491Z,26.11
2017-06-22T17:37:07.969Z,26.11
2017-06-22T17:39:36.348Z,26.10
2017-06-22T17:42:04.606Z,26.09
2017-06-22T17:44:32.078Z,26.08
2017-06-22T17:46:59.855Z,26.08
2017-06-22T17:49:27.315Z,26.09
2017-06-22T17:51:55.046Z,26.07
2017-06-22T17:54:24.169Z,26.05
2017-06-22T17:56:52.237Z,26.07
2017-06-22T17:59:21.113Z,26.08
2017-06-22T18:01:49.823Z,26.07
2017-06-22T18:04:17.591Z,26.06
2017-06-22T18:06:45.663Z,26.04
2017-06-22T18:09:13.386Z,26.06
2017-06-22T18:11:40.985Z,26.06
2017-06-22T18:14:08.456Z,26.05
2017-06-22T18:16:36.724Z,26.03
2017-06-22T18:19:04.922Z,26.03
2017-06-22T18:21:32.635Z,26.04
2017-06-22T18:24:00.195Z,26.02
2017-06-22T18:26:27.920Z,26.03
2017-06-22T18:28:55.614Z,26.02
2017-06-22T18:31:23.139Z,26.02
2017-06-22T18:33:51.079Z,26.02
2017-06-22T18:36:18.547Z,26.03
2017-06-22T18:38:46.407Z,26.05
2017-06-22T18:41:14.438Z,26.03
2017-06-22T18:43:42.116Z,26.03
2017-06-22T18:46:09.560Z,26.04
2017-06-22T18:48:37.182Z,26.05
2017-06-22T18:51:04.654Z,26.12
2017-06-22T18:53:32.508Z,26.09
2017-06-22T18:56:00.550Z,26.03
2017-06-22T18:58:29.040Z,25.99
2017-06-22T19:00:57.425Z,25.93
2017-06-22T19:03:25.585Z,25.90
2017-06-22T19:05:53.568Z,25.87
2017-06-22T19:08:21.338Z,25.89
2017-06-22T19:10:49.725Z,25.86
2017-06-22T19:13:19.086Z,25.81
2017-06-22T19:15:46.978Z,25.79
2017-06-22T19:18:14.546Z,25.77
2017-06-22T19:20:42.989Z,25.71
2017-06-22T19:23:10.791Z,25.70
2017-06-22T19:25:38.242Z,25.67
2017-06-22T19:28:05.694Z,25.65
2017-06-22T19:30:33.776Z,25.62
2017-06-22T19:33:01.847Z,25.56
2017-06-22T19:35:29.797Z,25.55
2017-06-22T19:37:58.511Z,25.53
2017-06-22T19:40:26.855Z,25.48
2017-06-22T19:42:55.507Z,25.45
2017-06-22T19:45:23.080Z,25.43
2017-06-22T19:47:50.911Z,25.41
2017-06-22T19:50:19.028Z,25.40
2017-06-22T19:52:46.743Z,25.37
2017-06-22T19:55:16.036Z,25.35
2017-06-22T19:57:43.812Z,25.34
2017-06-22T20:00:12.588Z,25.47
2017-06-22T20:02:40.067Z,25.43
2017-06-22T20:05:08.634Z,25.36
2017-06-22T20:07:36.459Z,25.38
2017-06-22T20:10:04.178Z,25.39
2017-06-22T20:12:32.349Z,25.44
2017-06-22T20:15:00.617Z,25.50
2017-06-22T20:17:28.880Z,25.46
2017-06-22T20:19:57.222Z,25.47
2017-06-22T20:22:25.760Z,25.47
2017-06-22T20:24:53.683Z,25.46
2017-06-22T20:27:21.699Z,25.45
2017-06-22T20:29:49.604Z,25.43
2017-06-22T20:32:17.740Z,25.42
2017-06-22T20:34:45.456Z,25.51
2017-06-22T20:37:12.952Z,25.51
2017-06-22T20:39:40.645Z,25.54
2017-06-22T20:42:08.669Z,25.56
2017-06-22T20:44:36.348Z,25.71
2017-06-22T20:47:04.447Z,25.59
2017-06-22T20:49:32.516Z,25.61
2017-06-22T20:52:00.528Z,25.62
2017-06-22T20:54:28.607Z,25.69
2017-06-22T20:56:56.555Z,25.62
2017-06-22T20:59:25.945Z,25.49
2017-06-22T21:01:53.678Z,25.61
2017-06-22T21:04:21.254Z,25.73
2017-06-22T21:06:48.816Z,25.66
2017-06-22T21:09:16.491Z,25.64
2017-06-22T21:11:44.483Z,25.59
2017-06-22T21:14:12.047Z,25.63
2017-06-22T21:16:40.383Z,25.67
2017-06-22T21:19:08.750Z,25.60
2017-06-22T21:21:37.455Z,25.59
2017-06-22T21:24:07.070Z,25.50
2017-06-22T21:26:35.648Z,25.62
2017-06-22T21:29:03.409Z,25.57
2017-06-22T21:31:31.047Z,25.60
2017-06-22T21:33:58.606Z,25.62
2017-06-22T21:36:27.179Z,25.58
2017-06-22T21:38:55.196Z,25.57
2017-06-22T21:41:23.283Z,25.46
2017-06-22T21:43:51.763Z,25.59
2017-06-22T21:46:20.080Z,25.68
2017-06-22T21:48:47.819Z,25.74
2017-06-22T21:51:15.652Z,25.67
2017-06-22T21:53:43.692Z,25.67
2017-06-22T21:56:12.020Z,25.65
2017-06-22T21:58:40.677Z,25.62
2017-06-22T22:01:08.673Z,25.51
2017-06-22T22:03:36.431Z,25.58
2017-06-22T22:06:04.326Z,25.50
2017-06-22T22:08:33.778Z,25.46
2017-06-22T22:11:01.769Z,25.37
2017-06-22T22:13:29.930Z,25.33
2017-06-22T22:15:57.591Z,25.32
2017-06-22T22:18:26.230Z,25.30
2017-06-22T22:20:54.451Z,25.27
2017-06-22T22:23:22.851Z,25.20
2017-06-22T22:25:51.928Z,25.19
2017-06-22T22:28:20.122Z,25.14
2017-06-22T22:30:48.199Z,25.08
2017-06-22T22:33:16.917Z,24.99
2017-06-22T22:35:44.423Z,24.94
2017-06-22T22:38:12.199Z,24.92
2017-06-22T22:40:40.571Z,24.91
2017-06-22T22:43:08.718Z,24.85
2017-06-22T22:45:38.090Z,24.76
2017-06-22T22:48:06.952Z,24.54
2017-06-22T22:50:34.928Z,24.47
2017-06-22T22:53:02.623Z,24.75
2017-06-22T22:55:30.423Z,24.80
2017-06-22T22:57:57.994Z,24.83
2017-06-22T23:00:26.519Z,24.82
2017-06-22T23:02:54.580Z,24.78
2017-06-22T23:05:22.808Z,24.81
2017-06-22T23:07:50.723Z,24.76
2017-06-22T23:10:19.108Z,24.78
2017-06-22T23:12:47.268Z,24.81
2017-06-22T23:15:16.269Z,24.83
2017-06-22T23:17:44.310Z,24.91
2017-06-22T23:20:12.356Z,24.96
2017-06-22T23:22:40.076Z,25.03
2017-06-22T23:25:09.172Z,25.03
2017-06-22T23:27:37.859Z,25.08
2017-06-22T23:30:05.631Z,25.08
2017-06-22T23:32:33.390Z,25.13
2017-06-22T23:35:01.971Z,25.10
2017-06-22T23:37:29.473Z,25.02
2017-06-22T23:39:58.017Z,24.95
2017-06-22T23:42:26.185Z,24.94
2017-06-22T23:44:54.073Z,24.91
2017-06-22T23:47:21.904Z,24.93
2017-06-22T23:49:49.381Z,24.91
2017-06-22T23:52:17.850Z,24.91
2017-06-22T23:54:46.447Z,24.89
2017-06-22T23:57:15.034Z,24.84
2017-06-22T23:59:43.416Z,24.85
